createdAt,value
2023-02-11T00:00:57.257Z,21.88
2023-02-11T00:03:23.735Z,21.10
2023-02-11T00:06:06.048Z,20.40
2023-02-11T00:08:32.455Z,20.40
2023-02-11T00:10:58.844Z,20.85
2023-02-11T00:13:25.847Z,20.73
2023-02-11T00:15:52.557Z,20.65
2023-02-11T00:18:19.286Z,20.35
2023-02-11T00:20:45.959Z,20.70
2023-02-11T00:23:12.353Z,20.17
2023-02-11T00:25:44.517Z,19.98
2023-02-11T00:28:11.907Z,19.90
2023-02-11T00:30:38.510Z,20.27
2023-02-11T00:33:04.976Z,19.58
2023-02-11T00:35:31.349Z,19.00
2023-02-11T00:37:57.938Z,18.77
2023-02-11T00:40:24.620Z,17.58
2023-02-11T00:42:51.084Z,18.60
2023-02-11T00:45:17.679Z,18.58
2023-02-11T00:47:44.151Z,19.40
2023-02-11T00:50:10.705Z,19.55
2023-02-11T00:52:37.098Z,19.20
2023-02-11T00:55:03.679Z,18.02
2023-02-11T00:57:30.032Z,20.05
2023-02-11T00:59:56.419Z,19.48
2023-02-11T01:02:22.829Z,19.02
2023-02-11T01:04:49.303Z,18.98
2023-02-11T01:07:16.096Z,18.02
2023-02-11T01:09:42.470Z,18.42
2023-02-11T01:12:08.833Z,17.83
2023-02-11T01:14:35.202Z,18.33
2023-02-11T01:17:01.598Z,17.88
2023-02-11T01:19:27.966Z,19.08
2023-02-11T01:21:54.282Z,18.35
2023-02-11T01:24:20.618Z,19.10
2023-02-11T01:26:46.983Z,19.45
2023-02-11T01:29:13.326Z,19.88
2023-02-11T01:31:39.807Z,20.65
2023-02-11T01:34:06.193Z,20.40
2023-02-11T01:36:32.607Z,20.50
2023-02-11T01:38:58.958Z,19.27
2023-02-11T01:41:25.451Z,18.50
2023-02-11T01:43:51.945Z,19.48
2023-02-11T01:46:38.426Z,19.08
2023-02-11T01:49:12.386Z,19.30
2023-02-11T01:51:45.635Z,19.90
2023-02-11T01:54:33.465Z,18.98
2023-02-11T01:57:20.087Z,18.25
2023-02-11T02:00:09.374Z,18.80
2023-02-11T02:02:48.866Z,18.90
2023-02-11T02:05:28.908Z,18.38
2023-02-11T02:08:16.710Z,18.38
2023-02-11T02:10:47.013Z,19.13
2023-02-11T02:13:14.437Z,18.35
2023-02-11T02:15:52.863Z,19.15
2023-02-11T02:18:35.400Z,17.30
2023-02-11T02:21:13.882Z,18.60
2023-02-11T02:23:52.388Z,18.45
2023-02-11T02:26:42.453Z,18.35
2023-02-11T02:29:37.775Z,17.40
2023-02-11T02:32:32.932Z,18.13
2023-02-11T02:35:18.082Z,17.27
2023-02-11T02:37:51.436Z,18.17
2023-02-11T02:40:26.883Z,18.10
2023-02-11T02:42:55.176Z,18.67
2023-02-11T02:45:22.025Z,19.23
2023-02-11T02:47:48.472Z,17.63
2023-02-11T02:50:20.043Z,18.60
2023-02-11T02:53:08.360Z,17.15
2023-02-11T02:55:45.560Z,17.90
2023-02-11T02:58:34.193Z,18.13
2023-02-11T03:01:36.148Z,17.50
2023-02-11T03:04:19.295Z,18.40
2023-02-11T03:06:55.073Z,17.35
2023-02-11T03:10:02.657Z,17.92
2023-02-11T03:12:32.478Z,17.80
2023-02-11T03:15:01.039Z,17.85
2023-02-11T03:17:30.821Z,17.33
2023-02-11T03:19:59.276Z,18.52
2023-02-11T03:22:33.343Z,17.95
2023-02-11T03:25:01.578Z,16.50
2023-02-11T03:27:38.716Z,16.45
2023-02-11T03:30:19.013Z,16.33
2023-02-11T03:32:51.864Z,16.17
2023-02-11T03:35:24.294Z,17.00
2023-02-11T03:38:06.712Z,17.95
2023-02-11T03:40:37.748Z,15.23
2023-02-11T03:43:13.012Z,18.05
2023-02-11T03:48:20.950Z,16.25
2023-02-11T03:50:50.175Z,17.10
2023-02-11T03:53:17.692Z,16.45
2023-02-11T03:55:47.332Z,16.63
2023-02-11T03:58:13.745Z,16.08
2023-02-11T04:00:42.604Z,16.55
2023-02-11T04:03:10.249Z,17.02
2023-02-11T04:05:37.307Z,17.77
2023-02-11T04:08:04.006Z,16.67
2023-02-11T04:10:30.699Z,16.02
2023-02-11T04:12:57.091Z,16.00
2023-02-11T04:15:24.435Z,17.15
2023-02-11T04:17:51.137Z,16.15
2023-02-11T04:20:17.735Z,16.88
2023-02-11T04:22:44.100Z,17.20
2023-02-11T04:25:10.694Z,15.88
2023-02-11T04:27:37.468Z,16.38
2023-02-11T04:30:05.298Z,16.10
2023-02-11T04:32:31.894Z,16.23
2023-02-11T04:34:58.258Z,16.98
2023-02-11T04:37:24.620Z,17.15
2023-02-11T04:39:50.961Z,16.00
2023-02-11T04:42:17.385Z,16.15
2023-02-11T04:44:43.740Z,17.85
2023-02-11T04:47:12.590Z,17.25
2023-02-11T04:49:39.063Z,16.95
2023-02-11T04:52:05.597Z,16.83
2023-02-11T04:54:31.983Z,16.30
2023-02-11T04:56:58.356Z,16.30
2023-02-11T04:59:24.993Z,16.60
2023-02-11T05:01:51.340Z,17.58
2023-02-11T05:04:18.208Z,17.98
2023-02-11T05:06:44.695Z,18.90
2023-02-11T05:09:12.871Z,20.95
2023-02-11T05:11:39.437Z,19.10
2023-02-11T05:14:07.029Z,19.88
2023-02-11T05:16:33.774Z,20.30
2023-02-11T05:19:00.533Z,19.75
2023-02-11T05:21:26.951Z,19.60
2023-02-11T05:23:53.320Z,20.77
2023-02-11T05:26:19.782Z,21.90
2023-02-11T05:28:46.207Z,21.73
2023-02-11T05:31:14.512Z,22.33
2023-02-11T05:33:41.364Z,23.63
2023-02-11T05:36:11.218Z,23.30
2023-02-11T05:38:38.396Z,21.90
2023-02-11T05:41:06.616Z,23.45
2023-02-11T05:43:35.010Z,22.33
2023-02-11T05:46:01.650Z,23.20
2023-02-11T05:48:28.036Z,24.25
2023-02-11T05:50:54.418Z,24.30
2023-02-11T05:53:20.798Z,24.38
2023-02-11T05:55:47.245Z,22.08
2023-02-11T05:58:13.646Z,23.65
2023-02-11T06:00:40.251Z,25.02
2023-02-11T06:03:06.663Z,23.75
2023-02-11T06:05:33.105Z,23.20
2023-02-11T06:07:59.505Z,22.67
2023-02-11T06:10:26.423Z,24.58
2023-02-11T06:12:52.818Z,24.05
2023-02-11T06:15:19.314Z,23.45
2023-02-11T06:17:45.636Z,22.00
2023-02-11T06:20:12.184Z,25.13
2023-02-11T06:22:38.536Z,24.38
2023-02-11T06:25:05.619Z,22.30
2023-02-11T06:27:32.025Z,23.17
2023-02-11T06:29:58.401Z,24.30
2023-02-11T06:32:42.793Z,26.65
2023-02-11T06:35:12.324Z,24.67
2023-02-11T06:37:39.328Z,24.42
2023-02-11T06:40:06.272Z,23.23
2023-02-11T06:42:32.667Z,24.83
2023-02-11T06:44:59.045Z,24.73
2023-02-11T06:47:25.439Z,23.75
2023-02-11T06:49:51.809Z,26.55
2023-02-11T06:52:18.197Z,25.25
2023-02-11T06:54:44.566Z,24.83
2023-02-11T06:57:11.009Z,23.23
2023-02-11T06:59:37.422Z,24.90
2023-02-11T07:02:04.090Z,24.35
2023-02-11T07:04:30.546Z,26.15
2023-02-11T07:06:56.933Z,23.23
2023-02-11T07:09:23.286Z,23.83
2023-02-11T07:11:49.697Z,24.48
2023-02-11T07:14:16.077Z,24.15
2023-02-11T07:16:42.572Z,25.95
2023-02-11T07:19:08.970Z,24.90
2023-02-11T07:21:35.579Z,24.35
2023-02-11T07:24:02.127Z,24.67
2023-02-11T07:26:29.220Z,24.35
2023-02-11T07:28:55.622Z,23.70
2023-02-11T07:31:25.126Z,24.52
2023-02-11T07:33:53.755Z,23.75
2023-02-11T07:36:20.191Z,23.60
2023-02-11T07:38:47.127Z,24.38
2023-02-11T07:41:16.552Z,25.85
2023-02-11T07:43:43.459Z,23.00
2023-02-11T07:46:16.170Z,22.63
2023-02-11T07:48:42.653Z,24.23
2023-02-11T07:51:21.066Z,23.60
2023-02-11T07:53:48.232Z,23.88
2023-02-11T07:56:16.374Z,24.42
2023-02-11T07:58:43.198Z,24.95
2023-02-11T08:01:12.211Z,23.40
2023-02-11T08:03:40.222Z,23.30
2023-02-11T08:06:08.773Z,25.60
2023-02-11T08:08:35.262Z,23.85
2023-02-11T08:11:10.283Z,25.35
2023-02-11T08:13:36.956Z,24.38
2023-02-11T08:16:04.312Z,26.65
2023-02-11T08:18:31.731Z,23.98
2023-02-11T08:21:04.856Z,24.63
2023-02-11T08:23:31.472Z,26.95
2023-02-11T08:26:04.883Z,24.55
2023-02-11T08:28:32.027Z,25.48
2023-02-11T08:30:58.501Z,24.92
2023-02-11T08:33:24.956Z,25.20
2023-02-11T08:35:51.468Z,26.27
2023-02-11T08:38:17.820Z,25.65
2023-02-11T08:40:44.351Z,25.17
2023-02-11T08:43:10.800Z,26.65
2023-02-11T08:45:37.487Z,28.13
2023-02-11T08:48:04.011Z,25.33
2023-02-11T08:50:30.610Z,25.40
2023-02-11T08:52:56.976Z,26.55
2023-02-11T08:55:23.346Z,28.17
2023-02-11T08:57:49.717Z,26.75
2023-02-11T09:00:17.410Z,28.92
2023-02-11T09:02:43.868Z,27.40
2023-02-11T09:05:10.365Z,27.30
2023-02-11T09:07:36.756Z,27.40
2023-02-11T09:10:03.560Z,26.40
2023-02-11T09:12:29.921Z,27.73
2023-02-11T09:14:56.384Z,28.17
2023-02-11T09:17:22.865Z,27.20
2023-02-11T09:19:49.196Z,26.73
2023-02-11T09:22:15.726Z,26.75
2023-02-11T09:24:42.095Z,27.77
2023-02-11T09:27:08.547Z,27.45
2023-02-11T09:29:35.042Z,27.23
2023-02-11T09:32:01.607Z,28.13
2023-02-11T09:34:35.408Z,26.20
2023-02-11T09:37:02.269Z,28.25
2023-02-11T09:39:29.264Z,27.85
2023-02-11T09:42:17.463Z,27.02
2023-02-11T09:44:46.061Z,27.10
2023-02-11T09:47:35.366Z,29.10
2023-02-11T09:50:12.260Z,28.27
2023-02-11T09:52:50.094Z,27.42
2023-02-11T09:55:34.127Z,26.85
2023-02-11T09:58:03.454Z,27.33
2023-02-11T10:00:53.416Z,27.83
2023-02-11T10:03:41.481Z,26.67
2023-02-11T10:06:19.598Z,26.98
2023-02-11T10:09:06.718Z,28.35
2023-02-11T10:12:01.338Z,28.70
2023-02-11T10:14:46.309Z,27.30
2023-02-11T10:17:31.829Z,28.25
2023-02-11T10:22:41.266Z,25.67
2023-02-11T10:25:27.556Z,28.40
2023-02-11T10:27:57.984Z,27.85
2023-02-11T10:30:40.556Z,27.10
2023-02-11T10:33:19.973Z,27.52
2023-02-11T10:35:46.440Z,27.50
2023-02-11T10:38:12.953Z,28.00
2023-02-11T10:40:39.474Z,27.35
2023-02-11T10:43:13.372Z,28.52
2023-02-11T10:45:51.224Z,27.35
2023-02-11T10:48:42.395Z,28.95
2023-02-11T10:51:15.766Z,28.02
2023-02-11T10:53:42.204Z,27.83
2023-02-11T10:56:12.597Z,27.60
2023-02-11T10:58:45.860Z,28.80
2023-02-11T11:01:24.037Z,29.27
2023-02-11T11:03:52.344Z,28.25
2023-02-11T11:06:30.754Z,29.45
2023-02-11T11:08:57.443Z,28.55
2023-02-11T11:11:25.823Z,29.00
2023-02-11T11:13:52.150Z,30.95
2023-02-11T11:16:20.804Z,29.70
2023-02-11T11:18:49.819Z,30.83
2023-02-11T11:21:19.105Z,29.73
2023-02-11T11:24:17.340Z,29.92
2023-02-11T11:26:47.721Z,29.98
2023-02-11T11:29:19.133Z,30.05
2023-02-11T11:31:57.777Z,30.58
2023-02-11T11:34:33.926Z,31.50
2023-02-11T11:37:09.493Z,30.52
2023-02-11T11:39:36.254Z,31.80
2023-02-11T11:42:21.816Z,31.35
2023-02-11T11:47:29.444Z,32.00
2023-02-11T11:50:20.127Z,31.88
2023-02-11T11:52:53.794Z,29.80
2023-02-11T11:55:31.017Z,32.35
2023-02-11T11:57:58.324Z,31.85
2023-02-11T12:00:33.594Z,33.58
2023-02-11T12:03:28.572Z,31.73
2023-02-11T12:06:28.672Z,35.97
2023-02-11T12:09:09.710Z,34.60
2023-02-11T12:11:39.122Z,32.65
2023-02-11T12:14:15.671Z,32.55
2023-02-11T12:17:12.675Z,31.80
2023-02-11T12:19:58.025Z,33.03
2023-02-11T12:22:42.860Z,30.60
2023-02-11T12:25:21.417Z,30.98
2023-02-11T12:27:54.640Z,32.25
2023-02-11T12:30:39.429Z,30.67
2023-02-11T12:33:33.084Z,33.50
2023-02-11T12:36:09.631Z,32.95
2023-02-11T12:38:49.251Z,31.83
2023-02-11T12:41:15.612Z,31.83
2023-02-11T12:43:44.466Z,31.55
2023-02-11T12:46:32.520Z,31.08
2023-02-11T12:49:42.920Z,33.78
2023-02-11T12:52:28.038Z,31.05
2023-02-11T12:55:02.309Z,31.02
2023-02-11T12:57:32.220Z,33.10
2023-02-11T13:00:15.092Z,31.13
2023-02-11T13:02:55.400Z,32.58
2023-02-11T13:05:40.467Z,32.88
2023-02-11T13:08:16.202Z,31.60
2023-02-11T13:10:53.193Z,31.05
2023-02-11T13:13:25.087Z,32.05
2023-02-11T13:16:22.680Z,35.40
2023-02-11T13:19:03.203Z,31.70
2023-02-11T13:21:33.500Z,29.90
2023-02-11T13:24:41.798Z,30.95
2023-02-11T13:27:36.316Z,31.83
2023-02-11T13:30:32.351Z,31.35
2023-02-11T13:33:00.579Z,30.52
2023-02-11T13:35:35.054Z,30.58
2023-02-11T13:38:04.809Z,31.45
2023-02-11T13:40:36.571Z,30.70
2023-02-11T13:43:05.575Z,31.13
2023-02-11T13:45:45.309Z,31.55
2023-02-11T13:48:27.270Z,30.98
2023-02-11T13:50:56.940Z,31.30
2023-02-11T13:53:24.063Z,31.05
2023-02-11T13:55:54.860Z,30.05
2023-02-11T13:58:27.072Z,30.67
2023-02-11T14:00:53.815Z,30.92
2023-02-11T14:03:50.306Z,30.38
2023-02-11T14:06:42.029Z,28.80
2023-02-11T14:09:14.181Z,31.75
2023-02-11T14:11:43.485Z,30.67
2023-02-11T14:14:31.627Z,30.92
2023-02-11T14:17:07.201Z,29.40
2023-02-11T14:19:43.669Z,31.08
2023-02-11T14:22:16.856Z,30.23
2023-02-11T14:24:49.069Z,30.48
2023-02-11T14:27:21.239Z,31.45
2023-02-11T14:30:06.003Z,32.10
2023-02-11T14:32:49.034Z,31.65
2023-02-11T14:35:19.646Z,31.00
2023-02-11T14:37:57.255Z,30.13
2023-02-11T14:40:26.689Z,30.60
2023-02-11T14:42:54.703Z,31.77
2023-02-11T14:45:29.212Z,30.92
2023-02-11T14:48:03.669Z,30.87
2023-02-11T14:50:46.223Z,31.73
2023-02-11T14:53:16.941Z,29.80
2023-02-11T14:55:46.735Z,32.47
2023-02-11T14:58:20.853Z,28.98
2023-02-11T15:00:55.910Z,28.92
2023-02-11T15:03:41.094Z,29.23
2023-02-11T15:06:25.039Z,28.77
2023-02-11T15:09:00.747Z,28.17
2023-02-11T15:11:31.037Z,27.83
2023-02-11T15:13:59.712Z,28.88
2023-02-11T15:16:28.696Z,27.80
2023-02-11T15:18:59.551Z,27.98
2023-02-11T15:21:29.995Z,27.85
2023-02-11T15:23:57.663Z,29.02
2023-02-11T15:26:24.344Z,28.42
2023-02-11T15:28:52.586Z,28.13
2023-02-11T15:31:23.335Z,29.23
2023-02-11T15:33:50.922Z,27.98
2023-02-11T15:36:20.729Z,29.55
2023-02-11T15:39:29.309Z,27.48
2023-02-11T15:41:55.700Z,27.90
2023-02-11T15:44:30.068Z,23.17
2023-02-11T15:46:56.612Z,29.95
2023-02-11T15:49:24.778Z,29.50
2023-02-11T15:51:53.972Z,29.20
2023-02-11T15:54:28.107Z,27.58
2023-02-11T15:57:02.120Z,31.48
2023-02-11T15:59:38.286Z,28.85
2023-02-11T16:02:15.011Z,32.28
2023-02-11T16:04:53.631Z,29.77
2023-02-11T16:07:41.550Z,29.98
2023-02-11T16:10:23.243Z,32.20
2023-02-11T16:12:53.619Z,30.13
2023-02-11T16:15:31.250Z,31.15
2023-02-11T16:17:57.789Z,31.17
2023-02-11T16:20:24.200Z,31.90
2023-02-11T16:22:50.857Z,31.75
2023-02-11T16:25:20.626Z,29.98
2023-02-11T16:27:52.340Z,32.05
2023-02-11T16:30:28.819Z,32.58
2023-02-11T16:32:55.341Z,32.33
2023-02-11T16:35:21.734Z,32.05
2023-02-11T16:37:48.115Z,30.73
2023-02-11T16:40:14.575Z,31.23
2023-02-11T16:42:40.968Z,31.88
2023-02-11T16:45:07.722Z,30.95
2023-02-11T16:47:35.824Z,31.08
2023-02-11T16:50:02.861Z,32.35
2023-02-11T16:52:31.652Z,30.38
2023-02-11T16:54:59.617Z,32.17
2023-02-11T16:57:29.541Z,31.67
2023-02-11T16:59:56.508Z,32.67
2023-02-11T17:02:26.578Z,32.55
2023-02-11T17:04:54.475Z,31.77
2023-02-11T17:07:21.586Z,33.45
2023-02-11T17:09:48.116Z,33.45
2023-02-11T17:12:14.496Z,34.55
2023-02-11T17:14:40.825Z,34.15
2023-02-11T17:17:08.008Z,34.50
2023-02-11T17:19:34.433Z,33.88
2023-02-11T17:22:00.884Z,34.33
2023-02-11T17:24:27.284Z,36.10
2023-02-11T17:26:54.672Z,34.88
2023-02-11T17:29:23.338Z,36.35
2023-02-11T17:31:51.777Z,36.95
2023-02-11T17:34:19.463Z,35.80
2023-02-11T17:36:46.174Z,37.67
2023-02-11T17:39:12.527Z,37.00
2023-02-11T17:41:40.197Z,36.38
2023-02-11T17:44:07.941Z,36.40
2023-02-11T17:46:35.386Z,35.55
2023-02-11T17:49:02.732Z,33.90
2023-02-11T17:51:37.216Z,36.35
2023-02-11T17:54:06.895Z,33.97
2023-02-11T17:56:35.514Z,36.05
2023-02-11T17:59:04.510Z,35.03
2023-02-11T18:01:33.297Z,36.38
2023-02-11T18:04:00.438Z,40.28
2023-02-11T18:06:28.999Z,37.35
2023-02-11T18:08:59.782Z,37.15
2023-02-11T18:11:27.759Z,37.58
2023-02-11T18:13:57.044Z,36.50
2023-02-11T18:16:25.702Z,36.83
2023-02-11T18:18:52.084Z,35.42
2023-02-11T18:21:20.596Z,36.45
2023-02-11T18:23:48.030Z,36.65
2023-02-11T18:26:15.988Z,36.10
2023-02-11T18:28:45.535Z,34.60
2023-02-11T18:31:14.010Z,36.50
2023-02-11T18:33:41.198Z,36.33
2023-02-11T18:36:09.876Z,38.08
2023-02-11T18:38:36.573Z,36.45
2023-02-11T18:41:03.543Z,35.17
2023-02-11T18:43:34.238Z,35.20
2023-02-11T18:46:02.763Z,36.92
2023-02-11T18:48:29.348Z,36.80
2023-02-11T18:50:55.935Z,36.03
2023-02-11T18:53:23.236Z,35.28
2023-02-11T18:55:49.857Z,38.30
2023-02-11T18:58:16.440Z,36.70
2023-02-11T19:00:46.729Z,37.38
2023-02-11T19:03:13.283Z,37.25
2023-02-11T19:05:48.025Z,38.00
2023-02-11T19:08:14.730Z,35.80
2023-02-11T19:10:43.037Z,37.47
2023-02-11T19:13:10.049Z,36.75
2023-02-11T19:15:43.695Z,35.47
2023-02-11T19:18:11.403Z,36.13
2023-02-11T19:20:43.516Z,35.78
2023-02-11T19:23:10.797Z,36.70
2023-02-11T19:25:37.550Z,38.20
2023-02-11T19:28:04.355Z,36.20
2023-02-11T19:30:30.877Z,37.58
2023-02-11T19:32:57.686Z,37.30
2023-02-11T19:35:25.126Z,37.22
2023-02-11T19:37:51.919Z,38.95
2023-02-11T19:40:20.429Z,36.95
2023-02-11T19:42:47.064Z,36.92
2023-02-11T19:45:13.518Z,36.80
2023-02-11T19:47:39.908Z,36.58
2023-02-11T19:50:06.992Z,35.15
2023-02-11T19:52:33.419Z,36.35
2023-02-11T19:55:00.487Z,37.15
2023-02-11T19:57:26.883Z,36.10
2023-02-11T19:59:54.889Z,36.63
2023-02-11T20:02:21.490Z,36.72
2023-02-11T20:04:48.053Z,37.72
2023-02-11T20:07:14.622Z,35.45
2023-02-11T20:09:42.484Z,38.58
2023-02-11T20:12:08.946Z,36.28
2023-02-11T20:14:35.506Z,37.67
2023-02-11T20:17:01.845Z,38.22
2023-02-11T20:19:30.255Z,37.45
2023-02-11T20:21:56.918Z,37.38
2023-02-11T20:24:24.511Z,36.00
2023-02-11T20:26:55.201Z,36.55
2023-02-11T20:29:22.169Z,36.42
2023-02-11T20:31:49.957Z,34.90
2023-02-11T20:34:17.550Z,36.58
2023-02-11T20:36:51.288Z,35.60
2023-02-11T20:39:18.543Z,35.35
2023-02-11T20:41:45.975Z,36.92
2023-02-11T20:44:12.430Z,35.30
2023-02-11T20:46:42.089Z,35.83
2023-02-11T20:49:11.964Z,35.20
2023-02-11T20:51:38.751Z,36.92
2023-02-11T20:54:06.357Z,35.47
2023-02-11T20:56:35.897Z,35.28
2023-02-11T20:59:03.997Z,35.15
2023-02-11T21:01:43.363Z,35.38
2023-02-11T21:04:15.278Z,35.15
2023-02-11T21:06:47.284Z,35.00
2023-02-11T21:09:17.317Z,33.70
2023-02-11T21:11:43.675Z,33.60
2023-02-11T21:14:11.893Z,33.88
2023-02-11T21:16:39.172Z,33.55
2023-02-11T21:19:06.211Z,35.13
2023-02-11T21:21:35.021Z,33.60
2023-02-11T21:24:01.454Z,33.65
2023-02-11T21:26:28.401Z,33.03
2023-02-11T21:28:55.151Z,34.03
2023-02-11T21:31:27.193Z,32.97
2023-02-11T21:33:59.244Z,33.67
2023-02-11T21:36:26.912Z,34.85
2023-02-11T21:38:53.306Z,34.50
2023-02-11T21:41:23.909Z,34.17
2023-02-11T21:43:50.939Z,35.92
2023-02-11T21:46:18.224Z,34.47
2023-02-11T21:48:44.679Z,33.05
2023-02-11T21:51:33.514Z,33.20
2023-02-11T21:54:01.606Z,33.55
2023-02-11T21:56:29.722Z,35.63
2023-02-11T21:58:57.734Z,35.40
2023-02-11T22:01:27.501Z,35.05
2023-02-11T22:03:54.295Z,35.53
2023-02-11T22:06:23.764Z,36.25
2023-02-11T22:09:00.748Z,32.88
2023-02-11T22:11:27.132Z,33.78
2023-02-11T22:13:57.882Z,34.53
2023-02-11T22:16:25.672Z,32.78
2023-02-11T22:18:53.204Z,31.60
2023-02-11T22:21:22.098Z,34.47
2023-02-11T22:23:49.626Z,31.02
2023-02-11T22:26:18.921Z,30.50
2023-02-11T22:28:46.930Z,30.70
2023-02-11T22:31:16.397Z,32.55
2023-02-11T22:33:43.182Z,31.77
2023-02-11T22:36:16.654Z,32.33
2023-02-11T22:38:43.090Z,32.65
2023-02-11T22:41:10.575Z,31.45
2023-02-11T22:43:37.961Z,32.53
2023-02-11T22:46:06.358Z,33.83
2023-02-11T22:48:34.620Z,33.00
2023-02-11T22:51:12.739Z,33.08
2023-02-11T22:53:39.700Z,32.22
2023-02-11T22:56:08.756Z,33.13
2023-02-11T22:58:35.915Z,32.45
2023-02-11T23:01:03.740Z,32.03
2023-02-11T23:03:31.309Z,31.95
2023-02-11T23:05:59.334Z,34.22
2023-02-11T23:08:27.673Z,31.90
2023-02-11T23:10:54.319Z,30.73
2023-02-11T23:13:20.739Z,31.83
2023-02-11T23:15:47.606Z,32.22
2023-02-11T23:18:14.561Z,32.88
2023-02-11T23:20:43.237Z,33.80
2023-02-11T23:23:09.677Z,31.50
2023-02-11T23:25:42.777Z,31.77
2023-02-11T23:28:09.880Z,31.15
2023-02-11T23:30:36.576Z,33.08
2023-02-11T23:33:03.001Z,31.27
2023-02-11T23:35:29.350Z,31.52
2023-02-11T23:37:55.724Z,31.88
2023-02-11T23:40:22.223Z,32.75
2023-02-11T23:42:48.966Z,32.47
2023-02-11T23:45:15.459Z,32.70
2023-02-11T23:47:41.856Z,32.20
2023-02-11T23:50:09.301Z,31.63
2023-02-11T23:52:35.782Z,31.88
2023-02-11T23:55:02.191Z,31.73
2023-02-11T23:57:28.634Z,31.38
2023-02-11T23:59:55.027Z,32.78
